createdAt,value
2018-03-22T00:00:31.531Z,9.10
2018-03-22T00:02:59.010Z,10.17
2018-03-22T00:05:26.466Z,9.43
2018-03-22T00:07:53.951Z,9.60
2018-03-22T00:10:21.403Z,9.10
2018-03-22T00:12:48.890Z,9.53
2018-03-22T00:15:16.351Z,8.30
2018-03-22T00:17:43.888Z,7.57
2018-03-22T00:20:11.356Z,7.83
2018-03-22T00:22:38.843Z,8.37
2018-03-22T00:25:07.060Z,7.60
2018-03-22T00:27:34.637Z,7.30
2018-03-22T00:30:02.112Z,7.60
2018-03-22T00:32:29.599Z,7.83
2018-03-22T00:34:57.117Z,7.30
2018-03-22T00:37:24.565Z,7.60
2018-03-22T00:39:52.014Z,6.93
2018-03-22T00:42:19.602Z,6.47
2018-03-22T00:44:47.056Z,6.60
2018-03-22T00:47:14.520Z,7.07
2018-03-22T00:49:42.766Z,6.87
2018-03-22T00:52:10.222Z,7.47
2018-03-22T00:54:37.674Z,7.50
2018-03-22T00:57:05.149Z,7.00
2018-03-22T00:59:32.594Z,6.80
2018-03-22T01:02:00.086Z,6.97
2018-03-22T01:04:27.538Z,6.70
2018-03-22T01:06:54.981Z,7.67
2018-03-22T01:09:22.457Z,6.60
2018-03-22T01:11:49.913Z,6.90
2018-03-22T01:14:17.370Z,6.87
2018-03-22T01:16:44.849Z,6.80
2018-03-22T01:19:12.333Z,7.50
2018-03-22T01:21:40.558Z,7.47
2018-03-22T01:24:08.043Z,7.30
2018-03-22T01:26:35.518Z,8.17
2018-03-22T01:29:03.733Z,7.93
2018-03-22T01:31:31.215Z,8.47
2018-03-22T01:33:58.694Z,8.47
2018-03-22T01:36:26.146Z,8.47
2018-03-22T01:38:53.630Z,8.67
2018-03-22T01:41:21.881Z,9.50
2018-03-22T01:43:49.359Z,9.60
2018-03-22T01:46:16.825Z,10.80
2018-03-22T01:48:44.324Z,10.00
2018-03-22T01:51:11.842Z,10.23
2018-03-22T01:53:40.047Z,10.50
2018-03-22T01:56:07.529Z,11.63
2018-03-22T01:58:34.994Z,12.00
2018-03-22T02:01:02.481Z,12.50
2018-03-22T02:03:30.697Z,12.40
2018-03-22T02:05:58.186Z,14.80
2018-03-22T02:08:25.642Z,14.33
2018-03-22T02:10:53.126Z,14.77
2018-03-22T02:13:20.594Z,15.13
2018-03-22T02:15:48.073Z,16.40
2018-03-22T02:18:15.525Z,17.77
2018-03-22T02:20:43.015Z,18.40
2018-03-22T02:23:10.481Z,20.90
2018-03-22T02:25:37.949Z,21.50
2018-03-22T02:28:05.429Z,21.63
2018-03-22T02:30:33.648Z,22.30
2018-03-22T02:33:01.130Z,23.50
2018-03-22T02:35:28.653Z,23.47
2018-03-22T02:37:56.105Z,26.10
2018-03-22T02:40:24.499Z,26.07
2018-03-22T02:42:52.777Z,24.93
2018-03-22T02:45:20.212Z,29.10
2018-03-22T02:47:47.667Z,26.93
2018-03-22T02:50:15.154Z,27.73
2018-03-22T02:52:43.375Z,29.90
2018-03-22T02:55:11.735Z,30.33
2018-03-22T02:57:39.174Z,31.60
2018-03-22T03:00:06.672Z,32.90
2018-03-22T03:02:34.912Z,32.53
2018-03-22T03:05:02.444Z,30.57
2018-03-22T03:07:29.891Z,33.20
2018-03-22T03:09:57.362Z,35.40
2018-03-22T03:12:24.810Z,38.03
2018-03-22T03:14:52.283Z,38.27
2018-03-22T03:17:19.734Z,35.70
2018-03-22T03:19:47.213Z,41.10
2018-03-22T03:22:14.673Z,41.70
2018-03-22T03:24:42.155Z,43.67
2018-03-22T03:27:09.614Z,45.80
2018-03-22T03:29:37.874Z,45.47
2018-03-22T03:32:05.353Z,44.20
2018-03-22T03:34:32.886Z,45.97
2018-03-22T03:37:00.338Z,44.07
2018-03-22T03:39:27.801Z,44.60
2018-03-22T03:41:55.278Z,43.07
2018-03-22T03:44:22.762Z,46.20
2018-03-22T03:46:50.206Z,45.87
2018-03-22T03:49:17.687Z,46.87
2018-03-22T03:51:45.291Z,45.70
2018-03-22T03:54:12.750Z,45.27
2018-03-22T03:56:40.221Z,44.70
2018-03-22T03:59:07.688Z,45.93
2018-03-22T04:01:35.165Z,47.70
2018-03-22T04:04:02.629Z,48.17
2018-03-22T04:06:30.114Z,46.60
2018-03-22T04:08:57.570Z,45.87
2018-03-22T04:11:25.046Z,47.40
2018-03-22T04:13:52.505Z,45.00
2018-03-22T04:16:20.773Z,47.03
2018-03-22T04:18:48.238Z,48.70
2018-03-22T04:21:16.470Z,49.83
2018-03-22T04:23:43.950Z,46.97
2018-03-22T04:26:11.405Z,49.47
2018-03-22T04:28:38.885Z,51.43
2018-03-22T04:31:07.113Z,52.23
2018-03-22T04:33:34.586Z,53.27
2018-03-22T04:36:02.099Z,53.57
2018-03-22T04:38:29.661Z,51.40
2018-03-22T04:40:57.145Z,51.57
2018-03-22T04:43:24.608Z,51.27
2018-03-22T04:45:52.094Z,54.00
2018-03-22T04:48:19.545Z,56.33
2018-03-22T04:50:47.000Z,58.90
2018-03-22T04:53:14.540Z,61.37
2018-03-22T04:55:42.001Z,61.30
2018-03-22T04:58:09.453Z,61.37
2018-03-22T05:00:36.934Z,58.30
2018-03-22T05:03:04.422Z,67.43
2018-03-22T05:05:31.895Z,64.53
2018-03-22T05:07:59.382Z,60.30
2018-03-22T05:10:26.839Z,68.70
2018-03-22T05:12:54.298Z,74.73
2018-03-22T05:15:21.779Z,68.77
2018-03-22T05:17:49.238Z,71.33
2018-03-22T05:20:16.726Z,76.70
2018-03-22T05:22:44.965Z,72.70
2018-03-22T05:25:12.456Z,69.60
2018-03-22T05:27:40.666Z,72.60
2018-03-22T05:30:08.153Z,79.83
2018-03-22T05:32:35.616Z,81.37
2018-03-22T05:35:03.078Z,81.70
2018-03-22T05:37:30.557Z,78.47
2018-03-22T05:39:58.038Z,74.13
2018-03-22T05:42:25.521Z,77.00
2018-03-22T05:44:52.988Z,80.67
2018-03-22T05:47:20.451Z,81.97
2018-03-22T05:49:47.944Z,79.50
2018-03-22T05:52:16.171Z,85.90
2018-03-22T05:54:44.457Z,81.20
2018-03-22T05:57:11.972Z,85.80
2018-03-22T05:59:39.460Z,87.30
2018-03-22T06:02:06.914Z,78.83
2018-03-22T06:04:34.385Z,81.00
2018-03-22T06:07:01.886Z,79.57
2018-03-22T06:09:30.114Z,78.87
2018-03-22T06:11:57.583Z,89.90
2018-03-22T06:14:25.046Z,76.83
2018-03-22T06:16:52.525Z,80.57
2018-03-22T06:19:19.978Z,77.50
2018-03-22T06:21:47.474Z,73.13
2018-03-22T06:24:14.949Z,69.80
2018-03-22T06:26:42.425Z,72.57
2018-03-22T06:29:09.901Z,62.87
2018-03-22T06:31:37.397Z,68.03
2018-03-22T06:34:04.885Z,62.57
2018-03-22T06:36:32.366Z,67.57
2018-03-22T06:38:59.860Z,58.13
2018-03-22T06:41:27.322Z,70.43
2018-03-22T06:43:54.789Z,61.50
2018-03-22T06:46:22.269Z,65.33
2018-03-22T06:48:49.737Z,55.80
2018-03-22T06:51:17.222Z,55.13
2018-03-22T06:53:45.462Z,59.37
2018-03-22T06:56:12.938Z,57.83
2018-03-22T06:58:40.401Z,60.23
2018-03-22T07:01:07.910Z,60.57
2018-03-22T07:03:35.357Z,56.77
2018-03-22T07:06:03.267Z,56.97
2018-03-22T07:08:30.746Z,68.67
2018-03-22T07:10:58.204Z,61.33
2018-03-22T07:13:26.477Z,69.20
2018-03-22T07:15:53.933Z,61.07
2018-03-22T07:18:22.195Z,66.67
2018-03-22T07:20:49.661Z,58.20
2018-03-22T07:23:17.137Z,63.80
2018-03-22T07:25:45.519Z,59.23
2018-03-22T07:28:13.749Z,57.47
2018-03-22T07:30:41.225Z,55.83
2018-03-22T07:33:08.698Z,58.53
2018-03-22T07:35:36.970Z,63.47
2018-03-22T07:38:04.427Z,52.40
2018-03-22T07:40:31.885Z,51.63
2018-03-22T07:43:05.705Z,53.23
2018-03-22T07:45:33.158Z,50.70
2018-03-22T07:48:00.650Z,47.70
2018-03-22T07:50:28.105Z,48.53
2018-03-22T07:52:55.585Z,52.93
2018-03-22T07:55:23.112Z,50.03
2018-03-22T07:57:50.603Z,40.80
2018-03-22T08:00:18.060Z,41.70
2018-03-22T08:02:45.540Z,42.07
2018-03-22T08:05:13.765Z,39.63
2018-03-22T08:07:41.265Z,41.57
2018-03-22T08:10:08.732Z,42.43
2018-03-22T08:12:36.205Z,41.80
2018-03-22T08:15:03.706Z,36.53
2018-03-22T08:17:31.162Z,41.83
2018-03-22T08:19:58.625Z,40.77
2018-03-22T08:22:26.122Z,34.77
2018-03-22T08:24:54.362Z,38.13
2018-03-22T08:27:21.835Z,36.10
2018-03-22T08:29:49.301Z,37.07
2018-03-22T08:32:17.542Z,39.47
2018-03-22T08:34:45.039Z,35.97
2018-03-22T08:37:12.518Z,39.90
2018-03-22T08:39:39.971Z,36.20
2018-03-22T08:42:07.449Z,32.73
2018-03-22T08:44:34.907Z,30.70
2018-03-22T08:47:02.436Z,34.07
2018-03-22T08:49:30.673Z,30.43
2018-03-22T08:51:58.151Z,28.37
2018-03-22T08:54:25.688Z,28.97
2018-03-22T08:56:53.102Z,28.40
2018-03-22T08:59:20.591Z,28.67
2018-03-22T09:01:48.042Z,28.73
2018-03-22T09:04:15.590Z,29.33
2018-03-22T09:06:43.041Z,28.27
2018-03-22T09:09:10.522Z,30.37
2018-03-22T09:11:38.007Z,26.07
2018-03-22T09:14:05.481Z,27.17
2018-03-22T09:16:32.936Z,26.53
2018-03-22T09:19:00.423Z,25.17
2018-03-22T09:21:27.883Z,24.63
2018-03-22T09:23:55.399Z,24.40
2018-03-22T09:26:22.866Z,23.10
2018-03-22T09:28:51.097Z,20.70
2018-03-22T09:31:18.566Z,23.83
2018-03-22T09:33:46.018Z,22.77
2018-03-22T09:36:13.501Z,23.63
2018-03-22T09:38:40.959Z,20.33
2018-03-22T09:41:08.438Z,18.67
2018-03-22T09:43:36.682Z,18.20
2018-03-22T09:46:04.165Z,20.07
2018-03-22T09:48:31.621Z,18.43
2018-03-22T09:50:59.861Z,17.43
2018-03-22T09:53:27.345Z,17.87
2018-03-22T09:55:55.573Z,16.43
2018-03-22T09:58:23.050Z,17.50
2018-03-22T10:00:50.506Z,14.97
2018-03-22T10:03:17.990Z,14.47
2018-03-22T10:05:46.219Z,14.43
2018-03-22T10:08:13.750Z,15.07
2018-03-22T10:10:41.209Z,11.97
2018-03-22T10:13:08.686Z,14.60
2018-03-22T10:15:36.141Z,12.93
2018-03-22T10:18:03.627Z,11.90
2018-03-22T10:20:31.121Z,13.47
2018-03-22T10:22:58.709Z,12.90
2018-03-22T10:25:26.205Z,11.30
2018-03-22T10:27:53.684Z,10.53
2018-03-22T10:30:21.121Z,9.10
2018-03-22T10:32:48.612Z,9.67
2018-03-22T10:35:16.857Z,10.17
2018-03-22T10:37:44.342Z,10.90
2018-03-22T10:40:11.794Z,9.67
2018-03-22T10:42:39.302Z,10.70
2018-03-22T10:45:06.786Z,9.13
2018-03-22T10:47:34.451Z,9.17
2018-03-22T10:50:01.910Z,9.10
2018-03-22T10:52:29.389Z,9.57
2018-03-22T10:54:57.642Z,9.90
2018-03-22T10:57:25.101Z,7.63
2018-03-22T10:59:52.585Z,8.20
2018-03-22T11:02:26.414Z,7.33
2018-03-22T11:04:53.898Z,7.23
2018-03-22T11:07:22.280Z,8.13
2018-03-22T11:09:49.772Z,7.33
2018-03-22T11:12:17.217Z,8.13
2018-03-22T11:14:44.698Z,6.27
2018-03-22T11:17:12.945Z,7.57
2018-03-22T11:19:40.415Z,8.00
2018-03-22T11:22:07.886Z,7.60
2018-03-22T11:24:35.370Z,6.87
2018-03-22T11:27:02.911Z,6.33
2018-03-22T11:29:31.157Z,6.33
2018-03-22T11:31:58.613Z,6.87
2018-03-22T11:34:26.172Z,6.43
2018-03-22T11:36:53.574Z,6.00
2018-03-22T11:39:21.026Z,6.57
2018-03-22T11:41:48.510Z,6.77
2018-03-22T11:44:16.908Z,6.47
2018-03-22T11:46:44.398Z,5.93
2018-03-22T11:49:11.838Z,6.30
2018-03-22T11:51:39.318Z,6.70
2018-03-22T11:54:06.922Z,5.87
2018-03-22T11:56:34.371Z,6.67
2018-03-22T11:59:01.893Z,6.10
2018-03-22T12:01:29.330Z,6.93
2018-03-22T12:03:56.830Z,6.70
2018-03-22T12:06:24.295Z,6.73
2018-03-22T12:08:51.741Z,5.93
2018-03-22T12:11:19.236Z,5.63
2018-03-22T12:13:46.681Z,6.10
2018-03-22T12:16:14.178Z,5.63
2018-03-22T12:18:41.639Z,6.33
2018-03-22T12:21:09.463Z,6.07
2018-03-22T12:23:39.074Z,6.50
2018-03-22T12:26:06.559Z,5.67
2018-03-22T12:28:34.035Z,5.73
2018-03-22T12:31:01.502Z,5.93
2018-03-22T12:33:29.722Z,5.73
2018-03-22T12:35:57.217Z,6.17
2018-03-22T12:38:24.679Z,5.57
2018-03-22T12:40:52.171Z,5.50
2018-03-22T12:43:19.661Z,5.60
2018-03-22T12:45:47.106Z,5.27
2018-03-22T12:48:14.551Z,5.80
2018-03-22T12:50:42.022Z,6.20
2018-03-22T12:53:09.494Z,5.50
2018-03-22T12:55:36.979Z,5.63
2018-03-22T12:58:04.469Z,5.10
2018-03-22T13:00:31.925Z,5.87
2018-03-22T13:02:59.549Z,5.63
2018-03-22T13:05:27.011Z,6.63
2018-03-22T13:07:54.464Z,5.73
2018-03-22T13:10:21.926Z,5.80
2018-03-22T13:12:49.407Z,5.80
2018-03-22T13:15:17.677Z,5.53
2018-03-22T13:17:45.142Z,6.73
2018-03-22T13:20:13.370Z,7.27
2018-03-22T13:22:40.851Z,8.30
2018-03-22T13:25:09.108Z,8.97
2018-03-22T13:27:36.559Z,9.77
2018-03-22T13:30:04.059Z,9.33
2018-03-22T13:32:31.546Z,8.57
2018-03-22T13:34:59.003Z,9.27
2018-03-22T13:37:26.474Z,9.97
2018-03-22T13:39:54.018Z,10.03
2018-03-22T13:42:21.513Z,10.27
2018-03-22T13:44:48.950Z,10.10
2018-03-22T13:47:16.439Z,10.13
2018-03-22T13:49:43.934Z,9.63
2018-03-22T13:52:11.407Z,9.53
2018-03-22T13:54:38.863Z,9.90
2018-03-22T13:57:06.378Z,9.27
2018-03-22T13:59:33.886Z,10.20
2018-03-22T14:02:01.356Z,9.70
2018-03-22T14:04:28.806Z,9.60
2018-03-22T14:06:56.351Z,8.70
2018-03-22T14:09:23.818Z,9.07
2018-03-22T14:11:51.304Z,10.23
2018-03-22T14:14:18.790Z,12.03
2018-03-22T14:16:46.254Z,7.97
2018-03-22T14:19:13.739Z,7.20
2018-03-22T14:21:41.211Z,6.80
2018-03-22T14:24:08.657Z,6.83
2018-03-22T14:26:36.126Z,7.20
2018-03-22T14:29:03.579Z,7.93
2018-03-22T14:31:31.041Z,8.63
2018-03-22T14:33:58.522Z,9.23
2018-03-22T14:36:25.978Z,10.07
2018-03-22T14:38:53.458Z,9.53
2018-03-22T14:41:21.697Z,8.77
2018-03-22T14:43:49.194Z,9.87
2018-03-22T14:46:17.418Z,10.07
2018-03-22T14:48:44.881Z,9.73
2018-03-22T14:51:12.421Z,11.60
2018-03-22T14:53:40.080Z,11.40
2018-03-22T14:56:07.537Z,10.37
2018-03-22T14:58:35.010Z,10.63
2018-03-22T15:01:02.654Z,10.47
2018-03-22T15:03:30.138Z,10.33
2018-03-22T15:05:57.585Z,10.00
2018-03-22T15:08:25.033Z,9.80
2018-03-22T15:10:52.530Z,9.40
2018-03-22T15:13:19.992Z,10.97
2018-03-22T15:15:47.432Z,9.77
2018-03-22T15:18:14.920Z,11.07
2018-03-22T15:20:42.389Z,9.90
2018-03-22T15:23:09.942Z,10.30
2018-03-22T15:25:38.181Z,10.47
2018-03-22T15:28:05.746Z,10.87
2018-03-22T15:30:33.198Z,11.27
2018-03-22T15:33:00.694Z,10.47
2018-03-22T15:35:28.918Z,13.43
2018-03-22T15:37:56.398Z,10.90
2018-03-22T15:40:23.865Z,11.03
2018-03-22T15:42:51.336Z,11.47
2018-03-22T15:45:18.822Z,10.43
2018-03-22T15:47:46.282Z,10.20
2018-03-22T15:50:13.766Z,11.10
2018-03-22T15:52:42.006Z,12.20
2018-03-22T15:55:09.489Z,10.93
2018-03-22T15:57:36.945Z,11.53
2018-03-22T16:00:04.472Z,9.17
2018-03-22T16:02:31.922Z,9.20
2018-03-22T16:04:59.378Z,8.57
2018-03-22T16:07:26.866Z,8.60
2018-03-22T16:09:54.350Z,9.07
2018-03-22T16:12:21.809Z,9.37
2018-03-22T16:14:49.282Z,8.10
2018-03-22T16:17:16.725Z,8.80
2018-03-22T16:19:44.203Z,8.73
2018-03-22T16:22:11.660Z,8.87
2018-03-22T16:24:39.135Z,7.80
2018-03-22T16:27:07.353Z,7.57
2018-03-22T16:29:34.898Z,9.40
2018-03-22T16:32:02.384Z,8.13
2018-03-22T16:34:29.830Z,7.80
2018-03-22T16:36:57.312Z,8.97
2018-03-22T16:39:25.142Z,8.93
2018-03-22T16:41:52.619Z,8.43
2018-03-22T16:44:20.105Z,8.23
2018-03-22T16:46:47.588Z,9.57
2018-03-22T16:49:15.050Z,9.43
2018-03-22T16:51:42.528Z,9.50
2018-03-22T16:54:09.989Z,9.63
2018-03-22T16:56:37.474Z,9.77
2018-03-22T16:59:04.914Z,9.90
2018-03-22T17:01:32.405Z,9.53
2018-03-22T17:03:59.872Z,9.53
2018-03-22T17:06:28.109Z,9.73
2018-03-22T17:08:55.610Z,9.63
2018-03-22T17:11:23.842Z,10.10
2018-03-22T17:13:51.330Z,10.93
2018-03-22T17:16:19.553Z,11.40
2018-03-22T17:18:47.095Z,11.03
2018-03-22T17:21:14.566Z,11.53
2018-03-22T17:23:42.063Z,11.83
2018-03-22T17:26:09.509Z,11.13
2018-03-22T17:28:36.983Z,12.00
2018-03-22T17:31:04.451Z,11.10
2018-03-22T17:33:32.878Z,11.13
2018-03-22T17:36:00.345Z,12.07
2018-03-22T17:38:27.818Z,12.93
2018-03-22T17:40:55.294Z,13.03
2018-03-22T17:43:22.776Z,15.63
2018-03-22T17:45:50.461Z,15.57
2018-03-22T17:48:17.902Z,15.00
2018-03-22T17:50:45.386Z,14.63
2018-03-22T17:53:12.859Z,15.00
2018-03-22T17:55:40.334Z,16.40
2018-03-22T17:58:07.848Z,16.53
2018-03-22T18:00:35.306Z,15.17
2018-03-22T18:03:02.811Z,15.10
2018-03-22T18:05:30.245Z,16.63
2018-03-22T18:07:57.725Z,15.60
2018-03-22T18:10:25.194Z,15.40
2018-03-22T18:12:52.646Z,15.23
2018-03-22T18:15:20.170Z,16.40
2018-03-22T18:17:47.653Z,16.67
2018-03-22T18:20:15.113Z,15.93
2018-03-22T18:22:42.610Z,15.70
2018-03-22T18:25:10.049Z,15.97
2018-03-22T18:27:38.289Z,16.57
2018-03-22T18:30:05.766Z,17.00
2018-03-22T18:32:33.255Z,18.03
2018-03-22T18:35:00.746Z,18.40
2018-03-22T18:37:28.240Z,18.87
2018-03-22T18:39:55.689Z,19.47
2018-03-22T18:42:23.173Z,19.70
2018-03-22T18:44:51.431Z,19.63
2018-03-22T18:47:19.658Z,19.57
2018-03-22T18:49:47.143Z,20.97
2018-03-22T18:52:14.646Z,21.17
2018-03-22T18:54:42.086Z,21.00
2018-03-22T18:57:10.309Z,20.00
2018-03-22T18:59:37.781Z,19.07
2018-03-22T19:02:05.249Z,18.93
2018-03-22T19:04:32.709Z,20.17
2018-03-22T19:07:00.195Z,18.57
2018-03-22T19:09:28.423Z,18.73
2018-03-22T19:11:55.922Z,18.43
2018-03-22T19:14:24.164Z,18.53
2018-03-22T19:16:51.620Z,17.87
2018-03-22T19:19:19.124Z,18.20
2018-03-22T19:21:46.601Z,17.10
2018-03-22T19:24:14.056Z,15.57
2018-03-22T19:26:41.560Z,17.07
2018-03-22T19:29:09.015Z,14.93
2018-03-22T19:31:36.527Z,15.77
2018-03-22T19:34:04.006Z,15.27
2018-03-22T19:36:31.490Z,15.03
2018-03-22T19:38:59.136Z,13.87
2018-03-22T19:41:26.605Z,15.27
2018-03-22T19:43:54.082Z,14.23
2018-03-22T19:46:22.350Z,14.50
2018-03-22T19:48:49.838Z,15.73
2018-03-22T19:51:17.358Z,15.73
2018-03-22T19:53:44.846Z,15.17
2018-03-22T19:56:13.070Z,14.93
2018-03-22T19:58:40.557Z,15.40
2018-03-22T20:01:08.039Z,15.63
2018-03-22T20:03:35.493Z,14.80
2018-03-22T20:06:02.996Z,16.07
2018-03-22T20:08:30.464Z,15.13
2018-03-22T20:10:57.945Z,15.97
2018-03-22T20:13:26.241Z,15.47
2018-03-22T20:15:54.495Z,15.27
2018-03-22T20:18:22.027Z,15.43
2018-03-22T20:20:49.486Z,15.63
2018-03-22T20:23:16.983Z,15.27
2018-03-22T20:25:45.250Z,16.37
2018-03-22T20:28:13.518Z,16.50
2018-03-22T20:30:40.994Z,15.77
2018-03-22T20:33:08.543Z,15.30
2018-03-22T20:35:36.762Z,16.43
2018-03-22T20:38:04.238Z,15.47
2018-03-22T20:40:31.746Z,16.27
2018-03-22T20:43:00.022Z,15.23
2018-03-22T20:45:28.286Z,15.77
2018-03-22T20:47:56.532Z,14.30
2018-03-22T20:50:24.049Z,13.17
2018-03-22T20:52:51.644Z,13.23
2018-03-22T20:55:19.146Z,13.70
2018-03-22T20:57:47.397Z,12.87
2018-03-22T21:00:14.893Z,12.47
2018-03-22T21:02:42.354Z,11.73
2018-03-22T21:05:09.834Z,11.83
2018-03-22T21:07:37.335Z,11.23
2018-03-22T21:10:04.879Z,10.60
2018-03-22T21:12:32.362Z,9.03
2018-03-22T21:15:00.630Z,9.00
2018-03-22T21:17:28.098Z,10.13
2018-03-22T21:19:55.568Z,9.37
2018-03-22T21:22:23.057Z,9.37
2018-03-22T21:24:50.600Z,10.27
2018-03-22T21:27:18.114Z,8.63
2018-03-22T21:29:45.567Z,9.60
2018-03-22T21:32:13.018Z,8.87
2018-03-22T21:34:40.514Z,8.10
2018-03-22T21:37:08.795Z,9.17
2018-03-22T21:39:36.262Z,9.80
2018-03-22T21:42:05.693Z,7.50
2018-03-22T21:44:33.171Z,8.47
2018-03-22T21:47:12.465Z,8.87
2018-03-22T21:49:39.936Z,7.50
2018-03-22T21:52:19.304Z,7.93
2018-03-22T21:54:46.806Z,8.30
2018-03-22T21:57:14.290Z,7.40
2018-03-22T21:59:41.777Z,7.53
2018-03-22T22:02:09.236Z,7.40
2018-03-22T22:04:36.714Z,8.63
2018-03-22T22:07:04.930Z,7.67
2018-03-22T22:09:32.385Z,7.23
2018-03-22T22:11:59.871Z,8.07
2018-03-22T22:14:27.315Z,8.03
2018-03-22T22:16:54.820Z,7.67
2018-03-22T22:19:23.066Z,8.13
2018-03-22T22:21:50.511Z,7.47
2018-03-22T22:24:17.991Z,8.73
2018-03-22T22:26:45.457Z,8.17
2018-03-22T22:29:12.950Z,7.87
2018-03-22T22:31:40.445Z,8.23
2018-03-22T22:34:07.915Z,8.03
2018-03-22T22:36:35.379Z,8.30
2018-03-22T22:39:02.861Z,8.00
2018-03-22T22:41:31.073Z,7.93
2018-03-22T22:43:58.546Z,8.00
2018-03-22T22:46:26.028Z,7.93
2018-03-22T22:48:53.505Z,7.30
2018-03-22T22:51:21.738Z,7.77
2018-03-22T22:53:49.226Z,7.63
2018-03-22T22:56:17.458Z,7.93
2018-03-22T22:58:44.958Z,8.37
2018-03-22T23:01:12.409Z,8.33
2018-03-22T23:03:39.892Z,8.47
2018-03-22T23:06:08.105Z,7.30
2018-03-22T23:08:35.566Z,7.97
2018-03-22T23:11:03.051Z,7.90
2018-03-22T23:13:30.525Z,8.07
2018-03-22T23:15:58.827Z,8.33
2018-03-22T23:18:26.286Z,9.13
2018-03-22T23:20:53.741Z,8.87
2018-03-22T23:23:21.206Z,9.30
2018-03-22T23:25:48.677Z,9.27
2018-03-22T23:28:16.133Z,9.53
2018-03-22T23:30:43.613Z,10.03
2018-03-22T23:33:11.060Z,9.47
2018-03-22T23:35:38.534Z,9.00
2018-03-22T23:38:06.009Z,9.57
2018-03-22T23:40:33.478Z,9.53
2018-03-22T23:43:00.962Z,9.30
2018-03-22T23:45:28.438Z,9.83
2018-03-22T23:47:55.918Z,10.23
2018-03-22T23:50:23.378Z,10.00
2018-03-22T23:52:50.826Z,9.57
2018-03-22T23:55:18.293Z,9.03
2018-03-22T23:57:45.769Z,8.83
